createdAt,value
2023-01-17T00:03:24.021Z,95373.00
2023-01-17T00:10:23.646Z,95383.00
2023-01-17T00:31:33.892Z,95408.00
2023-01-17T00:38:22.242Z,95399.00
2023-01-17T00:45:20.195Z,95438.00
2023-01-17T00:52:45.812Z,95473.00
2023-01-17T00:56:34.544Z,95465.00
2023-01-17T01:07:53.717Z,95461.00
2023-01-17T01:14:54.176Z,95488.00
2023-01-17T01:21:58.404Z,95491.00
2023-01-17T01:33:27.055Z,95489.00
2023-01-17T01:40:23.004Z,95496.00
2023-01-17T01:47:15.610Z,95497.00
2023-01-17T01:54:03.372Z,95492.00
2023-01-17T02:00:50.928Z,95471.00
2023-01-17T02:07:46.656Z,95506.00
2023-01-17T02:14:34.408Z,95499.00
2023-01-17T02:21:33.660Z,95493.00
2023-01-17T02:32:56.484Z,95458.00
2023-01-17T02:37:01.569Z,95480.00
2023-01-17T02:43:51.508Z,95462.00
2023-01-17T02:51:06.439Z,95447.00
2023-01-17T03:02:52.229Z,95436.00
2023-01-17T03:14:04.891Z,95441.00
2023-01-17T03:21:02.979Z,95429.00
2023-01-17T03:24:24.406Z,95465.00
2023-01-17T03:27:00.973Z,95447.00
2023-01-17T03:30:53.058Z,95463.00
2023-01-17T03:37:44.009Z,95467.00
2023-01-17T03:44:26.495Z,95462.00
2023-01-17T03:51:12.887Z,95454.00
2023-01-17T03:58:03.898Z,95443.00
2023-01-17T04:02:29.363Z,95453.00
2023-01-17T04:09:35.918Z,95451.00
2023-01-17T04:16:31.595Z,95444.00
2023-01-17T04:23:21.522Z,95441.00
2023-01-17T04:34:58.394Z,95471.00
2023-01-17T04:41:48.703Z,95441.00
2023-01-17T04:48:39.802Z,95458.00
2023-01-17T04:55:27.456Z,95451.00
2023-01-17T05:02:16.586Z,95458.00
2023-01-17T05:08:56.976Z,95475.00
2023-01-17T05:15:45.931Z,95473.00
2023-01-17T05:22:36.171Z,95452.00
2023-01-17T05:29:20.350Z,95468.00
2023-01-17T05:36:20.963Z,95458.00
2023-01-17T05:43:09.895Z,95445.00
2023-01-17T05:49:50.045Z,95433.00
2023-01-17T05:56:42.175Z,95464.00
2023-01-17T06:03:36.222Z,95428.00
2023-01-17T06:10:30.329Z,95430.00
2023-01-17T06:17:03.615Z,95402.00
2023-01-17T06:24:04.068Z,95407.00
2023-01-17T06:35:08.638Z,95384.00
2023-01-17T06:41:55.005Z,95405.00
2023-01-17T06:48:43.709Z,95412.00
2023-01-17T07:00:35.284Z,95403.00
2023-01-17T07:07:25.634Z,95408.00
2023-01-17T07:14:06.194Z,95370.00
2023-01-17T07:20:57.305Z,95362.00
2023-01-17T07:24:24.475Z,95372.00
2023-01-17T07:31:23.511Z,95367.00
2023-01-17T07:38:15.962Z,95349.00
2023-01-17T07:44:58.808Z,95325.00
2023-01-17T07:51:51.309Z,95334.00
2023-01-17T07:58:41.765Z,95331.00
2023-01-17T08:06:42.766Z,95358.00
2023-01-17T08:13:30.141Z,95332.00
2023-01-17T08:20:20.228Z,95367.00
2023-01-17T08:27:10.242Z,95362.00
2023-01-17T08:38:11.764Z,95358.00
2023-01-17T08:44:54.074Z,95365.00
2023-01-17T08:51:46.739Z,95370.00
2023-01-17T08:59:12.464Z,95334.00
2023-01-17T09:03:02.589Z,95354.00
2023-01-17T09:09:53.191Z,95354.00
2023-01-17T09:16:42.709Z,95316.00
2023-01-17T09:23:31.804Z,95329.00
2023-01-17T09:30:21.711Z,95281.00
2023-01-17T09:37:11.613Z,95293.00
2023-01-17T09:44:08.747Z,95288.00
2023-01-17T09:51:03.764Z,95293.00
2023-01-17T09:58:01.996Z,95296.00
2023-01-17T10:05:00.504Z,95290.00
2023-01-17T10:12:20.717Z,95291.00
2023-01-17T10:15:45.932Z,95277.00
2023-01-17T10:23:08.285Z,95273.00
2023-01-17T10:34:14.244Z,95276.00
2023-01-17T10:45:29.193Z,95254.00
2023-01-17T10:52:28.068Z,95259.00
2023-01-17T10:55:50.371Z,95258.00
2023-01-17T11:02:50.803Z,95260.00
2023-01-17T11:23:24.927Z,95229.00
2023-01-17T11:31:04.320Z,95219.00
2023-01-17T12:00:46.138Z,95171.00
2023-01-17T12:07:42.359Z,95159.00
2023-01-17T12:27:34.833Z,95134.00
2023-01-17T13:06:05.320Z,95077.00
2023-01-17T13:12:52.931Z,95081.00
2023-01-17T13:36:37.887Z,95047.00
2023-01-17T13:43:31.679Z,95041.00
2023-01-17T13:54:55.199Z,95058.00
2023-01-17T14:47:18.365Z,95043.00
2023-01-17T14:51:00.256Z,95043.00
2023-01-17T14:58:03.876Z,95021.00
2023-01-17T15:32:37.510Z,95020.00
2023-01-17T15:43:36.033Z,95005.00
2023-01-17T15:53:31.712Z,95009.00
2023-01-17T16:00:30.058Z,95037.00
2023-01-17T16:07:21.800Z,95061.00
2023-01-17T16:14:03.060Z,95039.00
2023-01-17T16:20:55.087Z,95070.00
2023-01-17T16:27:43.275Z,95059.00
2023-01-17T16:34:25.104Z,95072.00
2023-01-17T16:41:12.379Z,95086.00
2023-01-17T16:50:51.939Z,95079.00
2023-01-17T16:57:49.329Z,95085.00
2023-01-17T17:08:00.786Z,95076.00
2023-01-17T17:14:42.805Z,95090.00
2023-01-17T17:21:31.818Z,95067.00
2023-01-17T17:40:56.169Z,95076.00
2023-01-17T17:47:45.969Z,95084.00
2023-01-17T18:21:10.056Z,95117.00
2023-01-17T18:24:34.327Z,95120.00
2023-01-17T18:31:21.924Z,95120.00
2023-01-17T18:51:48.640Z,95134.00
2023-01-17T19:42:25.578Z,95140.00
2023-01-17T19:49:09.300Z,95144.00
2023-01-17T19:55:59.780Z,95151.00
2023-01-17T20:06:59.355Z,95156.00
2023-01-17T20:13:46.060Z,95126.00
2023-01-17T20:20:39.616Z,95125.00
2023-01-17T20:37:22.804Z,95136.00
2023-01-17T20:44:06.382Z,95128.00
2023-01-17T20:50:54.812Z,95100.00
2023-01-17T20:57:52.855Z,95116.00
2023-01-17T21:04:33.306Z,95117.00
2023-01-17T21:10:39.020Z,95130.00
2023-01-17T21:21:59.643Z,95141.00
2023-01-17T21:32:57.763Z,95135.00
2023-01-17T21:58:28.630Z,95104.00
2023-01-17T22:02:20.691Z,95090.00
2023-01-17T22:10:03.916Z,95126.00
2023-01-17T22:17:17.277Z,95128.00
2023-01-17T22:23:52.254Z,95125.00
2023-01-17T22:31:00.894Z,95102.00
2023-01-17T22:38:22.779Z,95132.00
2023-01-17T22:42:21.786Z,95123.00
2023-01-17T22:49:18.374Z,95084.00
2023-01-17T22:56:13.391Z,95132.00
2023-01-17T23:00:17.138Z,95130.00
2023-01-17T23:07:05.533Z,95105.00
2023-01-17T23:13:56.518Z,95128.00
2023-01-17T23:17:42.779Z,95123.00
2023-01-17T23:20:17.289Z,95115.00
2023-01-17T23:27:24.518Z,95124.00
2023-01-17T23:34:14.636Z,95103.00
2023-01-17T23:41:22.462Z,95103.00
2023-01-17T23:48:13.400Z,95138.00
2023-01-17T23:55:03.135Z,95117.00
